Time,TemperatureF,DewpointF,PressureIn,WindDirection,WindDirectionDegrees,WindSpeedMPH,WindSpeedGustMPH,Humidity,HourlyPrecipIn,Conditions,Clouds,dailyrainin,SolarRadiationWatts/m^2,SoftwareType,DateUTC
2013-06-27 00:22:00,64.0,56.0,-100.00,SE,124,0.0,5.0,74,0.00,,,0.00,0.000000,,2013-06-27 07:22:00,
2013-06-27 00:33:00,64.0,56.0,-100.00,SE,124,0.0,5.0,74,0.00,,,0.00,0.000000,,2013-06-27 07:33:00,
2013-06-27 00:42:00,64.0,56.0,-100.00,SE,124,0.0,5.0,74,0.00,,,0.00,0.000000,,2013-06-27 07:42:00,
2013-06-27 00:52:00,64.0,56.0,-100.00,SE,124,0.0,5.0,74,0.00,,,0.00,0.000000,,2013-06-27 07:52:00,
2013-06-27 01:22:00,65.0,57.0,-100.00,SE,127,0.0,6.0,75,0.00,,,0.00,0.000000,,2013-06-27 08:22:00,
2013-06-27 01:34:00,65.0,57.0,-100.00,SE,127,0.0,6.0,75,0.00,,,0.00,0.000000,,2013-06-27 08:34:00,
2013-06-27 01:43:00,65.0,57.0,-100.00,SE,127,0.0,6.0,75,0.00,,,0.00,0.000000,,2013-06-27 08:43:00,
2013-06-27 01:52:00,65.0,57.0,-100.00,SE,127,0.0,6.0,75,0.00,,,0.00,0.000000,,2013-06-27 08:52:00,
2013-06-27 02:34:00,66.0,57.0,-100.00,SE,131,1.0,5.0,72,0.00,,,0.00,0.000000,,2013-06-27 09:34:00,
2013-06-27 02:43:00,66.0,57.0,-100.00,SE,131,1.0,5.0,72,0.00,,,0.00,0.000000,,2013-06-27 09:43:00,
2013-06-27 02:53:00,66.0,57.0,-100.00,SE,131,1.0,5.0,72,0.00,,,0.00,0.000000,,2013-06-27 09:53:00,
2013-06-27 03:22:00,62.0,55.0,-100.00,ESE,116,0.0,6.0,79,0.00,,,0.00,0.000000,,2013-06-27 10:22:00,
2013-06-27 03:32:00,62.0,55.0,-100.00,ESE,116,0.0,6.0,79,0.00,,,0.00,0.000000,,2013-06-27 10:32:00,
2013-06-27 03:43:00,62.0,55.0,-100.00,ESE,116,0.0,6.0,79,0.00,,,0.00,0.000000,,2013-06-27 10:43:00,
2013-06-27 03:54:00,62.0,55.0,-100.00,ESE,116,0.0,6.0,79,0.00,,,0.00,0.000000,,2013-06-27 10:54:00,
2013-06-27 04:21:00,62.0,55.0,-100.00,SE,124,0.0,3.0,78,0.00,,,0.00,0.000000,,2013-06-27 11:21:00,
2013-06-27 04:33:00,62.0,55.0,-100.00,SE,124,0.0,3.0,78,0.00,,,0.00,0.000000,,2013-06-27 11:33:00,
2013-06-27 04:43:00,62.0,55.0,-100.00,SE,124,0.0,3.0,78,0.00,,,0.00,0.000000,,2013-06-27 11:43:00,
2013-06-27 04:52:00,62.0,55.0,-100.00,SE,124,0.0,3.0,78,0.00,,,0.00,0.000000,,2013-06-27 11:52:00,
2013-06-27 05:22:00,61.0,55.0,-100.00,East,95,0.0,6.0,81,0.00,,,0.00,0.000000,,2013-06-27 12:22:00,
2013-06-27 05:34:00,61.0,55.0,-100.00,East,95,0.0,6.0,81,0.00,,,0.00,0.000000,,2013-06-27 12:34:00,
2013-06-27 05:42:00,61.0,55.0,-100.00,East,95,0.0,6.0,81,0.00,,,0.00,0.000000,,2013-06-27 12:42:00,
2013-06-27 06:34:00,61.0,55.0,-100.00,SE,126,0.0,3.0,81,0.00,,,0.00,1.000000,,2013-06-27 13:34:00,
2013-06-27 06:43:00,61.0,55.0,-100.00,SE,126,0.0,3.0,81,0.00,,,0.00,1.000000,,2013-06-27 13:43:00,
2013-06-27 06:52:00,61.0,55.0,-100.00,SE,126,0.0,3.0,81,0.00,,,0.00,1.000000,,2013-06-27 13:52:00,
2013-06-27 07:22:00,64.0,57.0,-100.00,SE,131,0.0,5.0,78,0.00,,,0.00,17.000000,,2013-06-27 14:22:00,
2013-06-27 07:33:00,64.0,57.0,-100.00,SE,131,0.0,5.0,78,0.00,,,0.00,17.000000,,2013-06-27 14:33:00,
2013-06-27 07:43:00,64.0,57.0,-100.00,SE,131,0.0,5.0,78,0.00,,,0.00,17.000000,,2013-06-27 14:43:00,
2013-06-27 07:52:00,64.0,57.0,-100.00,SE,131,0.0,5.0,78,0.00,,,0.00,17.000000,,2013-06-27 14:52:00,
2013-06-27 08:22:00,70.0,56.0,-100.00,ESE,122,0.0,4.0,62,0.00,,,0.00,41.000000,,2013-06-27 15:22:00,
2013-06-27 08:33:00,70.0,56.0,-100.00,ESE,122,0.0,4.0,62,0.00,,,0.00,41.000000,,2013-06-27 15:33:00,
2013-06-27 08:42:00,70.0,56.0,-100.00,ESE,122,0.0,4.0,62,0.00,,,0.00,41.000000,,2013-06-27 15:42:00,
2013-06-27 08:52:00,70.0,56.0,-100.00,ESE,122,0.0,4.0,62,0.00,,,0.00,41.000000,,2013-06-27 15:52:00,
2013-06-27 09:34:00,80.0,57.0,-100.00,East,87,1.0,3.0,45,0.00,,,0.00,442.000000,,2013-06-27 16:34:00,
2013-06-27 09:43:00,80.0,57.0,-100.00,East,87,1.0,3.0,45,0.00,,,0.00,442.000000,,2013-06-27 16:43:00,
2013-06-27 09:53:00,80.0,57.0,-100.00,East,87,1.0,3.0,45,0.00,,,0.00,442.000000,,2013-06-27 16:53:00,
2013-06-27 10:22:00,82.0,56.0,-100.00,West,270,4.0,7.0,41,0.00,,,0.00,773.000000,,2013-06-27 17:22:00,
2013-06-27 10:33:00,82.0,56.0,-100.00,West,270,4.0,7.0,41,0.00,,,0.00,773.000000,,2013-06-27 17:33:00,
2013-06-27 10:43:00,82.0,56.0,-100.00,West,270,4.0,7.0,41,0.00,,,0.00,773.000000,,2013-06-27 17:43:00,
2013-06-27 10:53:00,82.0,56.0,-100.00,West,270,4.0,7.0,41,0.00,,,0.00,773.000000,,2013-06-27 17:53:00,
2013-06-27 12:33:00,87.0,58.0,-100.00,WSW,240,6.0,9.0,38,0.00,,,0.00,1077.000000,,2013-06-27 19:33:00,
2013-06-27 12:42:00,87.0,58.0,-100.00,WSW,240,6.0,9.0,38,0.00,,,0.00,1077.000000,,2013-06-27 19:42:00,
2013-06-27 12:53:00,87.0,58.0,-100.00,WSW,240,6.0,9.0,38,0.00,,,0.00,1077.000000,,2013-06-27 19:53:00,
2013-06-27 13:22:00,90.0,59.0,-100.00,West,259,4.0,11.0,36,0.00,,,0.00,1133.000000,,2013-06-27 20:22:00,
2013-06-27 13:36:00,90.0,59.0,-100.00,West,259,4.0,11.0,36,0.00,,,0.00,1133.000000,,2013-06-27 20:36:00,
2013-06-27 13:45:00,90.0,59.0,-100.00,West,259,4.0,11.0,36,0.00,,,0.00,1133.000000,,2013-06-27 20:45:00,
2013-06-27 13:54:00,90.0,59.0,-100.00,West,259,4.0,11.0,36,0.00,,,0.00,1133.000000,,2013-06-27 20:54:00,
2013-06-27 14:24:00,89.0,57.0,-100.00,West,267,5.0,11.0,34,0.00,,,0.00,1132.000000,,2013-06-27 21:24:00,
2013-06-27 14:34:00,89.0,57.0,-100.00,West,267,5.0,11.0,34,0.00,,,0.00,1132.000000,,2013-06-27 21:34:00,
2013-06-27 14:44:00,89.0,57.0,-100.00,West,267,5.0,11.0,34,0.00,,,0.00,1132.000000,,2013-06-27 21:44:00,
2013-06-27 14:53:00,89.0,57.0,-100.00,West,267,5.0,11.0,34,0.00,,,0.00,1132.000000,,2013-06-27 21:53:00,
2013-06-27 15:22:00,90.0,58.0,-100.00,West,268,6.0,11.0,34,0.00,,,0.00,1072.000000,,2013-06-27 22:22:00,
2013-06-27 15:33:00,90.0,58.0,-100.00,West,268,6.0,11.0,34,0.00,,,0.00,1072.000000,,2013-06-27 22:33:00,
2013-06-27 15:54:00,90.0,58.0,-100.00,West,268,6.0,11.0,34,0.00,,,0.00,1072.000000,,2013-06-27 22:54:00,
2013-06-27 16:34:00,91.0,58.0,-100.00,WNW,287,3.0,11.0,33,0.00,,,0.00,954.000000,,2013-06-27 23:34:00,
2013-06-27 16:43:00,91.0,58.0,-100.00,WNW,287,3.0,11.0,33,0.00,,,0.00,954.000000,,2013-06-27 23:43:00,
2013-06-27 16:54:00,91.0,58.0,-100.00,WNW,287,3.0,11.0,33,0.00,,,0.00,954.000000,,2013-06-27 23:54:00,
2013-06-27 17:34:00,92.0,58.0,-100.00,West,259,4.0,11.0,32,0.00,,,0.00,785.000000,,2013-06-28 00:34:00,
2013-06-27 17:44:00,92.0,58.0,-100.00,West,259,4.0,11.0,32,0.00,,,0.00,785.000000,,2013-06-28 00:44:00,
2013-06-27 18:23:00,91.0,58.0,-100.00,SSW,194,2.0,9.0,33,0.00,,,0.00,577.000000,,2013-06-28 01:23:00,
2013-06-27 18:35:00,91.0,58.0,-100.00,SSW,194,2.0,9.0,33,0.00,,,0.00,577.000000,,2013-06-28 01:35:00,
2013-06-27 18:45:00,91.0,58.0,-100.00,SSW,194,2.0,9.0,33,0.00,,,0.00,577.000000,,2013-06-28 01:45:00,
2013-06-27 18:53:00,91.0,58.0,-100.00,SSW,194,2.0,9.0,33,0.00,,,0.00,577.000000,,2013-06-28 01:53:00,
2013-06-27 19:25:00,86.0,57.0,-100.00,WNW,303,2.0,11.0,38,0.00,,,0.00,310.000000,,2013-06-28 02:25:00,
2013-06-27 19:35:00,86.0,57.0,-100.00,WNW,303,2.0,11.0,38,0.00,,,0.00,310.000000,,2013-06-28 02:35:00,
2013-06-27 19:46:00,86.0,57.0,-100.00,WNW,303,2.0,11.0,38,0.00,,,0.00,310.000000,,2013-06-28 02:46:00,
2013-06-27 20:24:00,79.0,57.0,-100.00,WNW,291,0.0,7.0,47,0.00,,,0.00,41.000000,,2013-06-28 03:24:00,
2013-06-27 20:44:00,79.0,57.0,-100.00,WNW,291,0.0,7.0,47,0.00,,,0.00,41.000000,,2013-06-28 03:44:00,
2013-06-27 20:53:00,79.0,57.0,-100.00,WNW,291,0.0,7.0,47,0.00,,,0.00,41.000000,,2013-06-28 03:53:00,
2013-06-27 21:33:00,74.0,58.0,-100.00,ESE,107,0.0,5.0,57,0.00,,,0.00,3.000000,,2013-06-28 04:33:00,
2013-06-27 21:43:00,74.0,58.0,-100.00,ESE,107,0.0,5.0,57,0.00,,,0.00,3.000000,,2013-06-28 04:43:00,
2013-06-27 21:53:00,74.0,58.0,-100.00,ESE,107,0.0,5.0,57,0.00,,,0.00,3.000000,,2013-06-28 04:53:00,
2013-06-27 22:33:00,72.0,55.0,-100.00,SE,132,0.0,4.0,55,0.00,,,0.00,0.000000,,2013-06-28 05:33:00,
2013-06-27 22:43:00,72.0,55.0,-100.00,SE,132,0.0,4.0,55,0.00,,,0.00,0.000000,,2013-06-28 05:43:00,
2013-06-27 22:52:00,72.0,55.0,-100.00,SE,132,0.0,4.0,55,0.00,,,0.00,0.000000,,2013-06-28 05:52:00,
2013-06-27 23:22:00,70.0,56.0,-100.00,ESE,121,0.0,6.0,62,0.00,,,0.00,0.000000,,2013-06-28 06:22:00,
2013-06-27 23:33:00,70.0,56.0,-100.00,ESE,121,0.0,6.0,62,0.00,,,0.00,0.000000,,2013-06-28 06:33:00,
2013-06-27 23:42:00,70.0,56.0,-100.00,ESE,121,0.0,6.0,62,0.00,,,0.00,0.000000,,2013-06-28 06:42:00,
2013-06-27 23:52:00,70.0,56.0,-100.00,ESE,121,0.0,6.0,62,0.00,,,0.00,0.000000,,2013-06-28 06:52:00,